sensor_id;sensor_type;location;lat;lon;timestamp;P1;durP1;ratioP1;P2;durP2;ratioP2
60436;SDS011;46289;51.992;4.498;2023-10-09T00:01:29;18.85;;;7.97;;
60436;SDS011;46289;51.992;4.498;2023-10-09T00:03:48;17.02;;;8.45;;
60436;SDS011;46289;51.992;4.498;2023-10-09T00:06:02;14.25;;;7.22;;
60436;SDS011;46289;51.992;4.498;2023-10-09T00:08:24;18.10;;;8.55;;
60436;SDS011;46289;51.992;4.498;2023-10-09T00:10:42;21.83;;;7.53;;
60436;SDS011;46289;51.992;4.498;2023-10-09T00:12:55;18.13;;;7.70;;
60436;SDS011;46289;51.992;4.498;2023-10-09T00:15:08;16.90;;;7.85;;
60436;SDS011;46289;51.992;4.498;2023-10-09T00:17:24;17.45;;;7.90;;
60436;SDS011;46289;51.992;4.498;2023-10-09T00:19:35;17.67;;;8.80;;
60436;SDS011;46289;51.992;4.498;2023-10-09T00:21:47;17.10;;;7.60;;
60436;SDS011;46289;51.992;4.498;2023-10-09T00:24:07;21.95;;;8.82;;
60436;SDS011;46289;51.992;4.498;2023-10-09T00:26:16;16.38;;;7.32;;
60436;SDS011;46289;51.992;4.498;2023-10-09T00:28:31;19.13;;;9.13;;
60436;SDS011;46289;51.992;4.498;2023-10-09T00:30:55;19.10;;;7.35;;
60436;SDS011;46289;51.992;4.498;2023-10-09T00:33:04;18.48;;;7.93;;
60436;SDS011;46289;51.992;4.498;2023-10-09T00:35:20;15.90;;;7.25;;
60436;SDS011;46289;51.992;4.498;2023-10-09T00:37:41;21.30;;;8.27;;
60436;SDS011;46289;51.992;4.498;2023-10-09T00:39:58;19.92;;;7.65;;
60436;SDS011;46289;51.992;4.498;2023-10-09T00:42:15;18.10;;;8.32;;
60436;SDS011;46289;51.992;4.498;2023-10-09T00:44:33;15.68;;;7.60;;
60436;SDS011;46289;51.992;4.498;2023-10-09T00:46:48;13.93;;;7.50;;
60436;SDS011;46289;51.992;4.498;2023-10-09T00:48:56;20.17;;;6.97;;
60436;SDS011;46289;51.992;4.498;2023-10-09T00:51:14;13.85;;;7.15;;
60436;SDS011;46289;51.992;4.498;2023-10-09T00:53:26;14.23;;;7.35;;
60436;SDS011;46289;51.992;4.498;2023-10-09T00:55:46;14.18;;;8.20;;
60436;SDS011;46289;51.992;4.498;2023-10-09T00:57:58;16.25;;;7.43;;
60436;SDS011;46289;51.992;4.498;2023-10-09T01:00:07;18.75;;;7.50;;
60436;SDS011;46289;51.992;4.498;2023-10-09T01:02:37;15.88;;;7.22;;
60436;SDS011;46289;51.992;4.498;2023-10-09T01:04:48;14.82;;;7.05;;
60436;SDS011;46289;51.992;4.498;2023-10-09T01:06:54;19.15;;;8.30;;
60436;SDS011;46289;51.992;4.498;2023-10-09T01:09:19;18.92;;;7.43;;
60436;SDS011;46289;51.992;4.498;2023-10-09T01:11:39;16.83;;;7.63;;
60436;SDS011;46289;51.992;4.498;2023-10-09T01:14:07;22.10;;;8.85;;
60436;SDS011;46289;51.992;4.498;2023-10-09T01:16:14;15.70;;;6.68;;
60436;SDS011;46289;51.992;4.498;2023-10-09T01:18:23;19.35;;;8.50;;
60436;SDS011;46289;51.992;4.498;2023-10-09T01:20:42;20.05;;;8.13;;
60436;SDS011;46289;51.992;4.498;2023-10-09T01:22:50;15.02;;;8.32;;
60436;SDS011;46289;51.992;4.498;2023-10-09T01:25:00;16.40;;;7.93;;
60436;SDS011;46289;51.992;4.498;2023-10-09T01:27:09;17.30;;;7.55;;
60436;SDS011;46289;51.992;4.498;2023-10-09T01:29:18;14.75;;;7.03;;
60436;SDS011;46289;51.992;4.498;2023-10-09T01:31:24;17.15;;;7.75;;
60436;SDS011;46289;51.992;4.498;2023-10-09T01:33:29;19.38;;;9.75;;
60436;SDS011;46289;51.992;4.498;2023-10-09T01:35:38;15.80;;;7.80;;
60436;SDS011;46289;51.992;4.498;2023-10-09T01:37:56;18.95;;;7.20;;
60436;SDS011;46289;51.992;4.498;2023-10-09T01:40:09;25.38;;;7.72;;
60436;SDS011;46289;51.992;4.498;2023-10-09T01:42:29;20.17;;;9.15;;
60436;SDS011;46289;51.992;4.498;2023-10-09T01:44:50;17.48;;;7.70;;
60436;SDS011;46289;51.992;4.498;2023-10-09T01:47:03;18.20;;;8.48;;
60436;SDS011;46289;51.992;4.498;2023-10-09T01:49:10;19.88;;;7.90;;
60436;SDS011;46289;51.992;4.498;2023-10-09T01:51:33;20.02;;;8.02;;
60436;SDS011;46289;51.992;4.498;2023-10-09T01:53:41;18.10;;;8.85;;
60436;SDS011;46289;51.992;4.498;2023-10-09T01:55:52;19.08;;;8.15;;
60436;SDS011;46289;51.992;4.498;2023-10-09T01:57:57;16.20;;;7.70;;
60436;SDS011;46289;51.992;4.498;2023-10-09T02:00:07;15.48;;;7.05;;
60436;SDS011;46289;51.992;4.498;2023-10-09T02:02:25;25.17;;;8.80;;
60436;SDS011;46289;51.992;4.498;2023-10-09T02:04:29;18.60;;;8.65;;
60436;SDS011;46289;51.992;4.498;2023-10-09T02:06:37;20.92;;;7.47;;
60436;SDS011;46289;51.992;4.498;2023-10-09T02:08:46;16.90;;;7.25;;
60436;SDS011;46289;51.992;4.498;2023-10-09T02:11:02;17.13;;;8.18;;
60436;SDS011;46289;51.992;4.498;2023-10-09T02:15:34;18.20;;;7.90;;
60436;SDS011;46289;51.992;4.498;2023-10-09T02:17:57;17.38;;;7.60;;
60436;SDS011;46289;51.992;4.498;2023-10-09T02:20:18;17.70;;;7.80;;
60436;SDS011;46289;51.992;4.498;2023-10-09T02:22:38;16.65;;;7.22;;
60436;SDS011;46289;51.992;4.498;2023-10-09T02:24:55;17.98;;;7.10;;
60436;SDS011;46289;51.992;4.498;2023-10-09T02:27:09;20.80;;;7.82;;
60436;SDS011;46289;51.992;4.498;2023-10-09T02:29:15;21.05;;;7.28;;
60436;SDS011;46289;51.992;4.498;2023-10-09T02:31:28;15.27;;;8.05;;
60436;SDS011;46289;51.992;4.498;2023-10-09T02:33:45;16.90;;;7.88;;
60436;SDS011;46289;51.992;4.498;2023-10-09T02:35:55;17.38;;;6.82;;
60436;SDS011;46289;51.992;4.498;2023-10-09T02:38:07;15.85;;;7.30;;
60436;SDS011;46289;51.992;4.498;2023-10-09T02:40:19;15.30;;;7.22;;
60436;SDS011;46289;51.992;4.498;2023-10-09T02:42:52;13.77;;;6.60;;
60436;SDS011;46289;51.992;4.498;2023-10-09T02:45:21;18.10;;;7.93;;
60436;SDS011;46289;51.992;4.498;2023-10-09T02:47:37;20.23;;;7.63;;
60436;SDS011;46289;51.992;4.498;2023-10-09T02:49:57;15.02;;;7.18;;
60436;SDS011;46289;51.992;4.498;2023-10-09T02:52:09;15.10;;;7.60;;
60436;SDS011;46289;51.992;4.498;2023-10-09T02:54:20;15.93;;;7.05;;
60436;SDS011;46289;51.992;4.498;2023-10-09T02:56:37;17.30;;;7.93;;
60436;SDS011;46289;51.992;4.498;2023-10-09T02:58:47;19.52;;;7.72;;
60436;SDS011;46289;51.992;4.498;2023-10-09T03:00:52;18.02;;;7.93;;
60436;SDS011;46289;51.992;4.498;2023-10-09T03:02:59;15.43;;;7.00;;
60436;SDS011;46289;51.992;4.498;2023-10-09T03:05:07;23.77;;;7.80;;
60436;SDS011;46289;51.992;4.498;2023-10-09T03:07:19;15.45;;;7.72;;
60436;SDS011;46289;51.992;4.498;2023-10-09T03:09:25;20.15;;;8.70;;
60436;SDS011;46289;51.992;4.498;2023-10-09T03:11:33;14.82;;;7.65;;
60436;SDS011;46289;51.992;4.498;2023-10-09T03:13:42;18.13;;;8.25;;
60436;SDS011;46289;51.992;4.498;2023-10-09T03:15:55;19.98;;;8.27;;
60436;SDS011;46289;51.992;4.498;2023-10-09T03:18:02;19.85;;;7.78;;
60436;SDS011;46289;51.992;4.498;2023-10-09T03:20:07;21.15;;;8.60;;
60436;SDS011;46289;51.992;4.498;2023-10-09T03:22:16;20.65;;;8.25;;
60436;SDS011;46289;51.992;4.498;2023-10-09T03:24:22;16.63;;;8.23;;
60436;SDS011;46289;51.992;4.498;2023-10-09T03:26:30;15.98;;;8.38;;
60436;SDS011;46289;51.992;4.498;2023-10-09T03:28:36;18.88;;;8.02;;
60436;SDS011;46289;51.992;4.498;2023-10-09T03:30:45;19.25;;;8.57;;
60436;SDS011;46289;51.992;4.498;2023-10-09T03:32:55;17.85;;;7.80;;
60436;SDS011;46289;51.992;4.498;2023-10-09T03:35:03;18.63;;;7.60;;
60436;SDS011;46289;51.992;4.498;2023-10-09T03:37:15;19.15;;;8.73;;
60436;SDS011;46289;51.992;4.498;2023-10-09T03:39:35;16.42;;;7.90;;
60436;SDS011;46289;51.992;4.498;2023-10-09T03:41:45;15.85;;;8.73;;
60436;SDS011;46289;51.992;4.498;2023-10-09T03:43:53;22.23;;;9.20;;
60436;SDS011;46289;51.992;4.498;2023-10-09T03:46:02;20.20;;;8.77;;
60436;SDS011;46289;51.992;4.498;2023-10-09T03:48:14;19.95;;;9.35;;
60436;SDS011;46289;51.992;4.498;2023-10-09T03:50:28;18.45;;;9.18;;
60436;SDS011;46289;51.992;4.498;2023-10-09T03:52:37;18.67;;;9.27;;
60436;SDS011;46289;51.992;4.498;2023-10-09T03:54:43;17.48;;;9.15;;
60436;SDS011;46289;51.992;4.498;2023-10-09T03:56:51;22.40;;;10.35;;
60436;SDS011;46289;51.992;4.498;2023-10-09T03:59:01;21.20;;;9.82;;
60436;SDS011;46289;51.992;4.498;2023-10-09T04:01:11;21.35;;;9.70;;
60436;SDS011;46289;51.992;4.498;2023-10-09T04:03:28;20.63;;;10.65;;
60436;SDS011;46289;51.992;4.498;2023-10-09T04:05:36;24.95;;;10.05;;
60436;SDS011;46289;51.992;4.498;2023-10-09T04:07:46;22.00;;;9.77;;
60436;SDS011;46289;51.992;4.498;2023-10-09T04:09:57;21.67;;;10.30;;
60436;SDS011;46289;51.992;4.498;2023-10-09T04:12:27;20.73;;;9.23;;
60436;SDS011;46289;51.992;4.498;2023-10-09T04:14:38;22.30;;;10.70;;
60436;SDS011;46289;51.992;4.498;2023-10-09T04:16:54;21.90;;;9.48;;
60436;SDS011;46289;51.992;4.498;2023-10-09T04:19:12;23.63;;;10.32;;
60436;SDS011;46289;51.992;4.498;2023-10-09T04:23:42;22.08;;;10.00;;
60436;SDS011;46289;51.992;4.498;2023-10-09T04:26:04;18.05;;;9.02;;
60436;SDS011;46289;51.992;4.498;2023-10-09T04:28:17;20.63;;;8.98;;
60436;SDS011;46289;51.992;4.498;2023-10-09T04:30:55;20.65;;;8.93;;
60436;SDS011;46289;51.992;4.498;2023-10-09T04:33:23;18.42;;;9.48;;
60436;SDS011;46289;51.992;4.498;2023-10-09T04:35:48;24.20;;;10.15;;
60436;SDS011;46289;51.992;4.498;2023-10-09T04:38:36;24.90;;;9.77;;
60436;SDS011;46289;51.992;4.498;2023-10-09T04:41:02;22.50;;;9.88;;
60436;SDS011;46289;51.992;4.498;2023-10-09T04:43:07;20.15;;;9.25;;
60436;SDS011;46289;51.992;4.498;2023-10-09T04:45:25;24.13;;;11.00;;
60436;SDS011;46289;51.992;4.498;2023-10-09T04:47:52;19.30;;;9.43;;
60436;SDS011;46289;51.992;4.498;2023-10-09T04:50:09;24.10;;;10.82;;
60436;SDS011;46289;51.992;4.498;2023-10-09T04:52:35;18.58;;;9.93;;
60436;SDS011;46289;51.992;4.498;2023-10-09T04:54:57;18.55;;;10.40;;
60436;SDS011;46289;51.992;4.498;2023-10-09T04:57:20;21.42;;;10.05;;
60436;SDS011;46289;51.992;4.498;2023-10-09T04:59:29;20.63;;;9.60;;
60436;SDS011;46289;51.992;4.498;2023-10-09T05:01:52;22.20;;;10.65;;
60436;SDS011;46289;51.992;4.498;2023-10-09T05:04:09;21.90;;;10.77;;
60436;SDS011;46289;51.992;4.498;2023-10-09T05:06:35;19.45;;;9.32;;
60436;SDS011;46289;51.992;4.498;2023-10-09T05:08:59;25.77;;;10.38;;
60436;SDS011;46289;51.992;4.498;2023-10-09T05:11:24;19.58;;;10.27;;
60436;SDS011;46289;51.992;4.498;2023-10-09T05:13:39;21.63;;;10.73;;
60436;SDS011;46289;51.992;4.498;2023-10-09T05:15:46;21.52;;;10.20;;
60436;SDS011;46289;51.992;4.498;2023-10-09T05:17:55;21.75;;;10.95;;
60436;SDS011;46289;51.992;4.498;2023-10-09T05:20:11;30.77;;;10.48;;
60436;SDS011;46289;51.992;4.498;2023-10-09T05:22:32;18.98;;;10.23;;
60436;SDS011;46289;51.992;4.498;2023-10-09T05:25:04;19.05;;;8.88;;
60436;SDS011;46289;51.992;4.498;2023-10-09T05:27:21;21.20;;;8.85;;
60436;SDS011;46289;51.992;4.498;2023-10-09T05:29:47;18.58;;;8.88;;
60436;SDS011;46289;51.992;4.498;2023-10-09T05:32:15;21.17;;;9.10;;
60436;SDS011;46289;51.992;4.498;2023-10-09T05:34:31;21.05;;;9.00;;
60436;SDS011;46289;51.992;4.498;2023-10-09T05:37:01;24.73;;;10.07;;
60436;SDS011;46289;51.992;4.498;2023-10-09T05:39:19;22.23;;;8.68;;
60436;SDS011;46289;51.992;4.498;2023-10-09T05:41:49;19.00;;;8.23;;
60436;SDS011;46289;51.992;4.498;2023-10-09T05:44:02;16.05;;;8.52;;
60436;SDS011;46289;51.992;4.498;2023-10-09T05:46:19;18.20;;;7.95;;
60436;SDS011;46289;51.992;4.498;2023-10-09T05:48:37;18.67;;;7.15;;
60436;SDS011;46289;51.992;4.498;2023-10-09T05:50:58;18.48;;;9.00;;
60436;SDS011;46289;51.992;4.498;2023-10-09T05:53:18;16.08;;;8.52;;
60436;SDS011;46289;51.992;4.498;2023-10-09T05:55:46;21.23;;;9.48;;
60436;SDS011;46289;51.992;4.498;2023-10-09T05:58:07;17.13;;;8.52;;
60436;SDS011;46289;51.992;4.498;2023-10-09T06:00:27;18.58;;;9.07;;
60436;SDS011;46289;51.992;4.498;2023-10-09T06:02:46;20.45;;;8.32;;
60436;SDS011;46289;51.992;4.498;2023-10-09T06:05:06;14.43;;;8.30;;
60436;SDS011;46289;51.992;4.498;2023-10-09T06:07:47;19.33;;;8.60;;
60436;SDS011;46289;51.992;4.498;2023-10-09T06:10:07;18.95;;;8.82;;
60436;SDS011;46289;51.992;4.498;2023-10-09T06:12:26;20.45;;;9.20;;
60436;SDS011;46289;51.992;4.498;2023-10-09T06:15:04;19.08;;;9.27;;
60436;SDS011;46289;51.992;4.498;2023-10-09T06:17:23;20.13;;;9.52;;
60436;SDS011;46289;51.992;4.498;2023-10-09T06:19:45;22.35;;;8.38;;
60436;SDS011;46289;51.992;4.498;2023-10-09T06:22:03;19.00;;;8.90;;
60436;SDS011;46289;51.992;4.498;2023-10-09T06:24:46;15.70;;;8.68;;
60436;SDS011;46289;51.992;4.498;2023-10-09T06:26:56;19.80;;;8.98;;
60436;SDS011;46289;51.992;4.498;2023-10-09T06:29:26;19.35;;;8.68;;
60436;SDS011;46289;51.992;4.498;2023-10-09T06:31:39;19.05;;;8.65;;
60436;SDS011;46289;51.992;4.498;2023-10-09T06:36:50;19.60;;;8.32;;
60436;SDS011;46289;51.992;4.498;2023-10-09T06:39:08;17.85;;;8.57;;
60436;SDS011;46289;51.992;4.498;2023-10-09T06:41:26;19.50;;;9.27;;
60436;SDS011;46289;51.992;4.498;2023-10-09T06:43:45;17.63;;;8.50;;
60436;SDS011;46289;51.992;4.498;2023-10-09T06:45:56;19.08;;;9.35;;
60436;SDS011;46289;51.992;4.498;2023-10-09T06:48:05;19.55;;;7.75;;
60436;SDS011;46289;51.992;4.498;2023-10-09T06:50:34;20.77;;;8.45;;
60436;SDS011;46289;51.992;4.498;2023-10-09T06:52:55;22.00;;;8.18;;
60436;SDS011;46289;51.992;4.498;2023-10-09T06:55:27;17.52;;;8.70;;
60436;SDS011;46289;51.992;4.498;2023-10-09T06:57:46;15.85;;;6.93;;
60436;SDS011;46289;51.992;4.498;2023-10-09T06:59:55;18.77;;;8.02;;
60436;SDS011;46289;51.992;4.498;2023-10-09T07:02:13;18.20;;;9.20;;
60436;SDS011;46289;51.992;4.498;2023-10-09T07:04:49;15.43;;;8.32;;
60436;SDS011;46289;51.992;4.498;2023-10-09T07:07:00;20.38;;;8.77;;
60436;SDS011;46289;51.992;4.498;2023-10-09T07:09:10;16.35;;;7.70;;
60436;SDS011;46289;51.992;4.498;2023-10-09T07:11:23;22.80;;;8.68;;
60436;SDS011;46289;51.992;4.498;2023-10-09T07:13:46;18.17;;;7.93;;
60436;SDS011;46289;51.992;4.498;2023-10-09T07:15:58;15.70;;;7.93;;
60436;SDS011;46289;51.992;4.498;2023-10-09T07:18:23;24.77;;;8.63;;
60436;SDS011;46289;51.992;4.498;2023-10-09T07:20:54;19.27;;;9.15;;
60436;SDS011;46289;51.992;4.498;2023-10-09T07:23:15;20.27;;;9.00;;
60436;SDS011;46289;51.992;4.498;2023-10-09T07:25:26;18.50;;;8.65;;
60436;SDS011;46289;51.992;4.498;2023-10-09T07:27:44;25.27;;;9.85;;
60436;SDS011;46289;51.992;4.498;2023-10-09T07:29:54;18.30;;;9.70;;
60436;SDS011;46289;51.992;4.498;2023-10-09T07:32:05;19.37;;;9.90;;
60436;SDS011;46289;51.992;4.498;2023-10-09T07:34:15;24.38;;;10.32;;
60436;SDS011;46289;51.992;4.498;2023-10-09T07:36:57;18.92;;;9.10;;
60436;SDS011;46289;51.992;4.498;2023-10-09T07:39:07;18.60;;;8.43;;
60436;SDS011;46289;51.992;4.498;2023-10-09T07:41:18;20.90;;;9.48;;
60436;SDS011;46289;51.992;4.498;2023-10-09T07:43:42;19.85;;;9.45;;
60436;SDS011;46289;51.992;4.498;2023-10-09T07:45:49;22.50;;;9.60;;
60436;SDS011;46289;51.992;4.498;2023-10-09T07:48:07;22.73;;;8.98;;
60436;SDS011;46289;51.992;4.498;2023-10-09T07:50:19;15.68;;;8.77;;
60436;SDS011;46289;51.992;4.498;2023-10-09T07:55:19;19.80;;;8.65;;
60436;SDS011;46289;51.992;4.498;2023-10-09T07:57:41;25.10;;;10.63;;
60436;SDS011;46289;51.992;4.498;2023-10-09T07:59:54;23.02;;;9.52;;
60436;SDS011;46289;51.992;4.498;2023-10-09T08:02:14;17.15;;;8.38;;
60436;SDS011;46289;51.992;4.498;2023-10-09T08:04:37;18.33;;;8.82;;
60436;SDS011;46289;51.992;4.498;2023-10-09T08:06:52;19.90;;;8.25;;
60436;SDS011;46289;51.992;4.498;2023-10-09T08:09:23;22.05;;;8.63;;
60436;SDS011;46289;51.992;4.498;2023-10-09T08:11:50;17.45;;;8.43;;
60436;SDS011;46289;51.992;4.498;2023-10-09T08:14:12;19.33;;;8.17;;
60436;SDS011;46289;51.992;4.498;2023-10-09T08:16:45;18.50;;;8.50;;
60436;SDS011;46289;51.992;4.498;2023-10-09T08:18:50;20.13;;;8.23;;
60436;SDS011;46289;51.992;4.498;2023-10-09T08:20:59;24.27;;;8.15;;
60436;SDS011;46289;51.992;4.498;2023-10-09T08:23:19;17.27;;;7.20;;
60436;SDS011;46289;51.992;4.498;2023-10-09T08:25:36;19.30;;;8.13;;
60436;SDS011;46289;51.992;4.498;2023-10-09T08:28:01;16.52;;;7.15;;
60436;SDS011;46289;51.992;4.498;2023-10-09T08:30:21;19.02;;;8.25;;
60436;SDS011;46289;51.992;4.498;2023-10-09T08:32:32;19.98;;;8.13;;
60436;SDS011;46289;51.992;4.498;2023-10-09T08:34:47;17.80;;;7.97;;
60436;SDS011;46289;51.992;4.498;2023-10-09T08:36:59;16.10;;;7.72;;
60436;SDS011;46289;51.992;4.498;2023-10-09T08:39:09;15.90;;;8.45;;
60436;SDS011;46289;51.992;4.498;2023-10-09T08:41:41;21.75;;;9.00;;
60436;SDS011;46289;51.992;4.498;2023-10-09T08:43:52;17.40;;;8.73;;
60436;SDS011;46289;51.992;4.498;2023-10-09T08:46:03;21.80;;;9.55;;
60436;SDS011;46289;51.992;4.498;2023-10-09T08:48:20;17.23;;;7.55;;
60436;SDS011;46289;51.992;4.498;2023-10-09T08:50:29;17.65;;;9.43;;
60436;SDS011;46289;51.992;4.498;2023-10-09T08:52:36;23.80;;;9.38;;
60436;SDS011;46289;51.992;4.498;2023-10-09T08:54:48;19.53;;;9.00;;
60436;SDS011;46289;51.992;4.498;2023-10-09T08:56:58;21.05;;;9.18;;
60436;SDS011;46289;51.992;4.498;2023-10-09T08:59:03;21.20;;;8.35;;
60436;SDS011;46289;51.992;4.498;2023-10-09T09:01:15;18.60;;;8.52;;
60436;SDS011;46289;51.992;4.498;2023-10-09T09:03:23;19.77;;;8.35;;
60436;SDS011;46289;51.992;4.498;2023-10-09T09:05:29;15.05;;;7.60;;
60436;SDS011;46289;51.992;4.498;2023-10-09T09:07:40;19.58;;;8.07;;
60436;SDS011;46289;51.992;4.498;2023-10-09T09:09:50;17.17;;;7.43;;
60436;SDS011;46289;51.992;4.498;2023-10-09T09:12:08;15.45;;;6.50;;
60436;SDS011;46289;51.992;4.498;2023-10-09T09:14:18;16.13;;;7.13;;
60436;SDS011;46289;51.992;4.498;2023-10-09T09:16:25;18.13;;;7.10;;
60436;SDS011;46289;51.992;4.498;2023-10-09T09:18:34;17.15;;;7.03;;
60436;SDS011;46289;51.992;4.498;2023-10-09T09:21:04;15.10;;;6.82;;
60436;SDS011;46289;51.992;4.498;2023-10-09T09:23:27;14.93;;;6.70;;
60436;SDS011;46289;51.992;4.498;2023-10-09T09:25:39;14.98;;;6.25;;
60436;SDS011;46289;51.992;4.498;2023-10-09T09:27:52;17.10;;;7.45;;
60436;SDS011;46289;51.992;4.498;2023-10-09T09:30:22;15.30;;;6.25;;
60436;SDS011;46289;51.992;4.498;2023-10-09T09:32:35;16.77;;;7.00;;
60436;SDS011;46289;51.992;4.498;2023-10-09T09:34:46;13.40;;;6.88;;
60436;SDS011;46289;51.992;4.498;2023-10-09T09:36:50;15.13;;;6.38;;
60436;SDS011;46289;51.992;4.498;2023-10-09T09:39:06;17.42;;;7.00;;
60436;SDS011;46289;51.992;4.498;2023-10-09T09:41:21;15.60;;;7.03;;
60436;SDS011;46289;51.992;4.498;2023-10-09T09:43:34;17.65;;;6.15;;
60436;SDS011;46289;51.992;4.498;2023-10-09T09:45:45;16.92;;;6.95;;
60436;SDS011;46289;51.992;4.498;2023-10-09T09:47:54;14.63;;;6.30;;
60436;SDS011;46289;51.992;4.498;2023-10-09T09:50:08;17.77;;;5.85;;
60436;SDS011;46289;51.992;4.498;2023-10-09T09:52:29;14.38;;;6.45;;
60436;SDS011;46289;51.992;4.498;2023-10-09T09:54:43;18.92;;;6.10;;
60436;SDS011;46289;51.992;4.498;2023-10-09T09:56:53;13.30;;;5.60;;
60436;SDS011;46289;51.992;4.498;2023-10-09T10:01:25;15.75;;;6.03;;
60436;SDS011;46289;51.992;4.498;2023-10-09T10:03:36;15.32;;;6.07;;
60436;SDS011;46289;51.992;4.498;2023-10-09T10:05:50;14.10;;;6.90;;
60436;SDS011;46289;51.992;4.498;2023-10-09T10:08:02;13.73;;;5.43;;
60436;SDS011;46289;51.992;4.498;2023-10-09T10:12:52;15.98;;;6.28;;
60436;SDS011;46289;51.992;4.498;2023-10-09T10:15:10;15.65;;;6.65;;
60436;SDS011;46289;51.992;4.498;2023-10-09T10:17:21;15.10;;;5.95;;
60436;SDS011;46289;51.992;4.498;2023-10-09T10:19:59;19.67;;;5.97;;
60436;SDS011;46289;51.992;4.498;2023-10-09T10:22:25;23.20;;;6.43;;
60436;SDS011;46289;51.992;4.498;2023-10-09T10:24:44;14.98;;;6.07;;
60436;SDS011;46289;51.992;4.498;2023-10-09T10:29:28;15.50;;;6.00;;
60436;SDS011;46289;51.992;4.498;2023-10-09T10:31:58;16.30;;;6.47;;
60436;SDS011;46289;51.992;4.498;2023-10-09T10:34:09;17.05;;;6.70;;
60436;SDS011;46289;51.992;4.498;2023-10-09T10:36:24;13.90;;;6.55;;
60436;SDS011;46289;51.992;4.498;2023-10-09T10:38:29;20.45;;;6.53;;
60436;SDS011;46289;51.992;4.498;2023-10-09T10:40:48;16.98;;;7.43;;
60436;SDS011;46289;51.992;4.498;2023-10-09T10:43:02;14.98;;;6.07;;
60436;SDS011;46289;51.992;4.498;2023-10-09T10:45:45;20.17;;;6.70;;
60436;SDS011;46289;51.992;4.498;2023-10-09T10:47:58;20.90;;;6.57;;
60436;SDS011;46289;51.992;4.498;2023-10-09T10:50:17;13.00;;;5.88;;
60436;SDS011;46289;51.992;4.498;2023-10-09T10:52:37;16.95;;;6.00;;
60436;SDS011;46289;51.992;4.498;2023-10-09T10:55:08;16.35;;;6.40;;
60436;SDS011;46289;51.992;4.498;2023-10-09T10:57:47;18.10;;;6.20;;
60436;SDS011;46289;51.992;4.498;2023-10-09T11:00:10;13.32;;;5.78;;
60436;SDS011;46289;51.992;4.498;2023-10-09T11:02:16;15.85;;;6.43;;
60436;SDS011;46289;51.992;4.498;2023-10-09T11:04:35;20.00;;;6.00;;
60436;SDS011;46289;51.992;4.498;2023-10-09T11:06:47;11.77;;;5.72;;
60436;SDS011;46289;51.992;4.498;2023-10-09T11:09:05;15.48;;;6.07;;
60436;SDS011;46289;51.992;4.498;2023-10-09T11:11:25;16.02;;;6.70;;
60436;SDS011;46289;51.992;4.498;2023-10-09T11:13:43;14.68;;;6.68;;
60436;SDS011;46289;51.992;4.498;2023-10-09T11:16:03;14.65;;;5.65;;
60436;SDS011;46289;51.992;4.498;2023-10-09T11:18:25;13.70;;;6.20;;
60436;SDS011;46289;51.992;4.498;2023-10-09T11:20:52;17.88;;;6.45;;
60436;SDS011;46289;51.992;4.498;2023-10-09T11:23:25;16.63;;;6.20;;
60436;SDS011;46289;51.992;4.498;2023-10-09T11:25:43;11.80;;;5.60;;
60436;SDS011;46289;51.992;4.498;2023-10-09T11:28:18;17.50;;;7.65;;
60436;SDS011;46289;51.992;4.498;2023-10-09T11:30:31;19.02;;;7.43;;
60436;SDS011;46289;51.992;4.498;2023-10-09T11:32:38;14.75;;;6.32;;
60436;SDS011;46289;51.992;4.498;2023-10-09T11:34:43;15.98;;;6.28;;
60436;SDS011;46289;51.992;4.498;2023-10-09T11:36:58;16.48;;;6.22;;
60436;SDS011;46289;51.992;4.498;2023-10-09T11:39:02;14.98;;;6.68;;
60436;SDS011;46289;51.992;4.498;2023-10-09T11:41:19;19.38;;;6.88;;
60436;SDS011;46289;51.992;4.498;2023-10-09T11:43:24;19.05;;;7.05;;
60436;SDS011;46289;51.992;4.498;2023-10-09T11:45:53;14.25;;;6.00;;
60436;SDS011;46289;51.992;4.498;2023-10-09T11:48:15;14.35;;;6.07;;
60436;SDS011;46289;51.992;4.498;2023-10-09T11:50:39;14.75;;;6.30;;
60436;SDS011;46289;51.992;4.498;2023-10-09T11:52:59;16.92;;;7.13;;
60436;SDS011;46289;51.992;4.498;2023-10-09T11:55:19;15.95;;;6.57;;
60436;SDS011;46289;51.992;4.498;2023-10-09T11:57:29;18.13;;;7.20;;
60436;SDS011;46289;51.992;4.498;2023-10-09T11:59:37;17.40;;;6.15;;
60436;SDS011;46289;51.992;4.498;2023-10-09T12:01:46;13.13;;;6.15;;
60436;SDS011;46289;51.992;4.498;2023-10-09T12:03:56;14.85;;;6.07;;
60436;SDS011;46289;51.992;4.498;2023-10-09T12:06:03;16.58;;;6.47;;
60436;SDS011;46289;51.992;4.498;2023-10-09T12:08:16;15.57;;;6.70;;
60436;SDS011;46289;51.992;4.498;2023-10-09T12:10:24;14.93;;;6.55;;
60436;SDS011;46289;51.992;4.498;2023-10-09T12:12:31;17.48;;;6.30;;
60436;SDS011;46289;51.992;4.498;2023-10-09T12:14:47;18.95;;;6.20;;
60436;SDS011;46289;51.992;4.498;2023-10-09T12:19:07;16.83;;;6.38;;
60436;SDS011;46289;51.992;4.498;2023-10-09T12:21:20;15.65;;;6.35;;
60436;SDS011;46289;51.992;4.498;2023-10-09T12:23:33;13.23;;;6.45;;
60436;SDS011;46289;51.992;4.498;2023-10-09T12:25:48;15.40;;;6.50;;
60436;SDS011;46289;51.992;4.498;2023-10-09T12:27:58;15.10;;;6.63;;
60436;SDS011;46289;51.992;4.498;2023-10-09T12:30:05;16.67;;;5.93;;
60436;SDS011;46289;51.992;4.498;2023-10-09T12:32:20;16.27;;;6.35;;
60436;SDS011;46289;51.992;4.498;2023-10-09T12:34:25;16.90;;;7.78;;
60436;SDS011;46289;51.992;4.498;2023-10-09T12:36:39;17.88;;;6.25;;
60436;SDS011;46289;51.992;4.498;2023-10-09T12:38:58;17.58;;;6.93;;
60436;SDS011;46289;51.992;4.498;2023-10-09T12:41:08;16.52;;;7.40;;
60436;SDS011;46289;51.992;4.498;2023-10-09T12:45:33;17.98;;;5.93;;
60436;SDS011;46289;51.992;4.498;2023-10-09T12:47:48;11.98;;;5.85;;
60436;SDS011;46289;51.992;4.498;2023-10-09T12:49:54;18.52;;;7.80;;
60436;SDS011;46289;51.992;4.498;2023-10-09T12:52:06;19.30;;;6.80;;
60436;SDS011;46289;51.992;4.498;2023-10-09T12:54:22;16.67;;;6.97;;
60436;SDS011;46289;51.992;4.498;2023-10-09T12:56:32;18.20;;;7.38;;
60436;SDS011;46289;51.992;4.498;2023-10-09T12:58:50;15.95;;;6.80;;
60436;SDS011;46289;51.992;4.498;2023-10-09T13:01:01;16.75;;;6.28;;
60436;SDS011;46289;51.992;4.498;2023-10-09T13:03:19;14.77;;;6.18;;
60436;SDS011;46289;51.992;4.498;2023-10-09T13:05:31;18.25;;;7.43;;
60436;SDS011;46289;51.992;4.498;2023-10-09T13:07:49;21.05;;;7.30;;
60436;SDS011;46289;51.992;4.498;2023-10-09T13:10:00;18.58;;;7.28;;
60436;SDS011;46289;51.992;4.498;2023-10-09T13:12:23;14.98;;;5.50;;
60436;SDS011;46289;51.992;4.498;2023-10-09T13:14:35;18.38;;;7.25;;
60436;SDS011;46289;51.992;4.498;2023-10-09T13:16:49;17.10;;;6.97;;
60436;SDS011;46289;51.992;4.498;2023-10-09T13:19:01;16.02;;;8.10;;
60436;SDS011;46289;51.992;4.498;2023-10-09T13:21:15;21.52;;;7.57;;
60436;SDS011;46289;51.992;4.498;2023-10-09T13:23:27;20.17;;;6.97;;
60436;SDS011;46289;51.992;4.498;2023-10-09T13:25:45;15.48;;;6.63;;
60436;SDS011;46289;51.992;4.498;2023-10-09T13:28:05;23.23;;;6.68;;
60436;SDS011;46289;51.992;4.498;2023-10-09T13:30:15;18.88;;;7.65;;
60436;SDS011;46289;51.992;4.498;2023-10-09T13:32:28;19.15;;;7.60;;
60436;SDS011;46289;51.992;4.498;2023-10-09T13:34:47;16.60;;;7.25;;
60436;SDS011;46289;51.992;4.498;2023-10-09T13:37:05;20.73;;;8.18;;
60436;SDS011;46289;51.992;4.498;2023-10-09T13:39:37;15.45;;;5.95;;
60436;SDS011;46289;51.992;4.498;2023-10-09T13:41:59;19.80;;;7.07;;
60436;SDS011;46289;51.992;4.498;2023-10-09T13:44:11;24.75;;;7.25;;
60436;SDS011;46289;51.992;4.498;2023-10-09T13:46:28;18.17;;;7.32;;
60436;SDS011;46289;51.992;4.498;2023-10-09T13:48:33;20.98;;;7.20;;